createdAt,value
2022-10-08T00:01:39.285Z,12.20
2022-10-08T00:04:11.866Z,12.24
2022-10-08T00:06:40.844Z,12.18
2022-10-08T00:09:09.805Z,12.14
2022-10-08T00:11:40.850Z,12.18
2022-10-08T00:14:10.695Z,12.18
2022-10-08T00:16:41.065Z,12.09
2022-10-08T00:19:13.954Z,12.11
2022-10-08T00:21:44.750Z,12.14
2022-10-08T00:24:15.631Z,12.06
2022-10-08T00:26:45.020Z,12.00
2022-10-08T00:29:16.264Z,11.96
2022-10-08T00:31:48.132Z,12.03
2022-10-08T00:34:21.107Z,11.97
2022-10-08T00:36:52.954Z,11.90
2022-10-08T00:39:24.058Z,12.05
2022-10-08T00:41:54.850Z,11.88
2022-10-08T00:44:52.433Z,11.98
2022-10-08T00:47:26.834Z,11.91
2022-10-08T00:50:01.604Z,11.95
2022-10-08T00:52:35.872Z,11.86
2022-10-08T00:55:08.583Z,11.84
2022-10-08T00:57:39.043Z,11.75
2022-10-08T01:00:11.041Z,11.78
2022-10-08T01:02:40.015Z,11.69
2022-10-08T01:05:12.419Z,11.68
2022-10-08T01:07:49.981Z,11.61
2022-10-08T01:10:27.655Z,11.62
2022-10-08T01:13:14.834Z,11.62
2022-10-08T01:15:54.015Z,11.53
2022-10-08T01:18:30.569Z,11.46
2022-10-08T01:21:10.013Z,11.46
2022-10-08T01:23:59.594Z,11.41
2022-10-08T01:26:45.871Z,11.35
2022-10-08T01:29:22.929Z,11.40
2022-10-08T01:31:55.069Z,11.30
2022-10-08T01:34:32.032Z,11.38
2022-10-08T01:37:04.164Z,11.31
2022-10-08T01:39:37.028Z,11.37
2022-10-08T01:42:09.433Z,11.39
2022-10-08T01:44:46.358Z,11.34
2022-10-08T01:47:19.295Z,11.35
2022-10-08T01:49:53.014Z,11.40
2022-10-08T01:52:26.719Z,11.40
2022-10-08T01:54:59.363Z,11.33
2022-10-08T01:57:30.202Z,11.38
2022-10-08T02:00:06.284Z,11.43
2022-10-08T02:02:42.217Z,11.37
2022-10-08T02:05:12.311Z,11.37
2022-10-08T02:07:43.273Z,11.45
2022-10-08T02:10:15.231Z,11.37
2022-10-08T02:12:45.567Z,11.52
2022-10-08T02:15:19.987Z,11.48
2022-10-08T02:17:57.166Z,11.50
2022-10-08T02:20:33.560Z,11.53
2022-10-08T02:23:09.059Z,11.49
2022-10-08T02:25:42.221Z,11.45
2022-10-08T02:28:19.040Z,11.45
2022-10-08T02:30:53.110Z,11.41
2022-10-08T02:33:27.606Z,11.46
2022-10-08T02:36:00.352Z,11.45
2022-10-08T02:38:34.190Z,11.45
2022-10-08T02:41:06.355Z,11.37
2022-10-08T02:43:39.988Z,11.37
2022-10-08T02:46:17.286Z,11.30
2022-10-08T02:48:51.018Z,11.27
2022-10-08T02:51:21.128Z,11.19
2022-10-08T02:53:50.231Z,11.27
2022-10-08T02:56:25.394Z,11.24
2022-10-08T02:58:55.816Z,11.14
2022-10-08T03:01:34.900Z,11.20
2022-10-08T03:04:09.824Z,11.28
2022-10-08T03:06:39.295Z,11.26
2022-10-08T03:09:11.458Z,11.28
2022-10-08T03:11:40.788Z,11.30
2022-10-08T03:14:14.663Z,11.29
2022-10-08T03:16:47.471Z,11.29
2022-10-08T03:19:18.278Z,11.29
2022-10-08T03:21:50.494Z,11.26
2022-10-08T03:24:19.418Z,11.27
2022-10-08T03:26:48.395Z,11.32
2022-10-08T03:29:17.319Z,11.30
2022-10-08T03:31:48.984Z,11.31
2022-10-08T03:34:18.216Z,11.36
2022-10-08T03:36:47.233Z,11.35
2022-10-08T03:39:16.125Z,11.37
2022-10-08T03:41:45.072Z,11.38
2022-10-08T03:44:14.016Z,11.32
2022-10-08T03:46:42.926Z,11.34
2022-10-08T03:49:13.217Z,11.30
2022-10-08T03:51:42.161Z,11.32
2022-10-08T03:54:11.215Z,11.32
2022-10-08T03:56:40.369Z,11.32
2022-10-08T03:59:09.430Z,11.31
2022-10-08T04:01:38.762Z,11.31
2022-10-08T04:04:07.748Z,11.28
2022-10-08T04:06:38.000Z,11.26
2022-10-08T04:09:06.918Z,11.25
2022-10-08T04:11:35.826Z,11.25
2022-10-08T04:14:04.764Z,11.21
2022-10-08T04:16:33.817Z,11.22
2022-10-08T04:19:02.757Z,11.20
2022-10-08T04:21:32.511Z,11.19
2022-10-08T04:24:03.145Z,11.18
2022-10-08T04:26:32.101Z,11.16
2022-10-08T04:29:01.539Z,11.18
2022-10-08T04:31:30.567Z,11.11
2022-10-08T04:33:59.505Z,11.04
2022-10-08T04:36:28.424Z,10.94
2022-10-08T04:38:57.392Z,10.92
2022-10-08T04:41:28.012Z,10.92
2022-10-08T04:44:01.047Z,10.90
2022-10-08T04:46:30.285Z,10.94
2022-10-08T04:49:00.109Z,10.93
2022-10-08T04:51:29.263Z,10.95
2022-10-08T04:53:58.685Z,10.99
2022-10-08T04:56:31.009Z,10.90
2022-10-08T04:59:00.480Z,10.86
2022-10-08T05:01:30.877Z,10.80
2022-10-08T05:04:01.073Z,10.79
2022-10-08T05:06:32.151Z,10.77
2022-10-08T05:09:03.035Z,10.83
2022-10-08T05:11:34.087Z,10.79
2022-10-08T05:14:03.238Z,10.71
2022-10-08T05:16:32.493Z,10.68
2022-10-08T05:19:01.400Z,10.72
2022-10-08T05:21:32.777Z,10.71
2022-10-08T05:24:03.528Z,10.66
2022-10-08T05:26:56.897Z,10.66
2022-10-08T05:29:25.193Z,10.77
2022-10-08T05:31:54.109Z,10.72
2022-10-08T05:34:23.332Z,10.76
2022-10-08T05:36:52.295Z,10.72
2022-10-08T05:39:21.247Z,10.71
2022-10-08T05:41:51.721Z,10.68
2022-10-08T05:44:20.724Z,10.66
2022-10-08T05:46:49.666Z,10.63
2022-10-08T05:49:21.500Z,10.71
2022-10-08T05:51:51.041Z,10.62
2022-10-08T05:54:20.790Z,10.64
2022-10-08T05:56:51.448Z,10.61
2022-10-08T05:59:22.639Z,10.67
2022-10-08T06:01:52.155Z,10.65
2022-10-08T06:04:21.150Z,10.57
2022-10-08T06:06:50.154Z,10.57
2022-10-08T06:09:21.549Z,10.57
2022-10-08T06:11:52.349Z,10.59
2022-10-08T06:14:21.285Z,10.58
2022-10-08T06:16:50.363Z,10.53
2022-10-08T06:19:19.482Z,10.60
2022-10-08T06:21:48.399Z,10.55
2022-10-08T06:24:17.332Z,10.58
2022-10-08T06:26:46.271Z,10.54
2022-10-08T06:29:18.614Z,10.56
2022-10-08T06:31:47.796Z,10.55
2022-10-08T06:34:16.974Z,10.61
2022-10-08T06:36:45.894Z,10.61
2022-10-08T06:39:16.400Z,10.62
2022-10-08T06:41:45.367Z,10.58
2022-10-08T06:44:19.009Z,10.67
2022-10-08T06:46:48.065Z,10.71
2022-10-08T06:49:18.231Z,10.76
2022-10-08T06:51:47.158Z,10.79
2022-10-08T06:54:16.185Z,10.88
2022-10-08T06:56:45.048Z,10.85
2022-10-08T06:59:14.057Z,10.92
2022-10-08T07:01:44.496Z,10.86
2022-10-08T07:04:13.522Z,10.88
2022-10-08T07:06:42.506Z,10.96
2022-10-08T07:09:13.272Z,11.07
2022-10-08T07:11:42.180Z,11.17
2022-10-08T07:14:11.112Z,11.27
2022-10-08T07:16:40.102Z,11.32
2022-10-08T07:19:10.662Z,11.37
2022-10-08T07:21:40.462Z,11.40
2022-10-08T07:24:09.490Z,11.50
2022-10-08T07:26:38.484Z,11.53
2022-10-08T07:29:09.734Z,11.64
2022-10-08T07:31:39.829Z,11.70
2022-10-08T07:34:12.868Z,11.81
2022-10-08T07:36:42.468Z,11.87
2022-10-08T07:39:14.487Z,11.91
2022-10-08T07:41:43.677Z,11.98
2022-10-08T07:44:13.553Z,12.03
2022-10-08T07:46:45.670Z,12.08
2022-10-08T07:49:17.172Z,12.06
2022-10-08T07:51:46.834Z,12.14
2022-10-08T07:54:18.118Z,12.19
2022-10-08T07:56:47.276Z,12.30
2022-10-08T07:59:16.392Z,12.39
2022-10-08T08:01:45.908Z,12.49
2022-10-08T08:04:16.286Z,12.58
2022-10-08T08:06:47.649Z,12.70
2022-10-08T08:09:18.128Z,12.73
2022-10-08T08:11:48.229Z,12.91
2022-10-08T08:14:17.246Z,12.73
2022-10-08T08:16:46.280Z,12.75
2022-10-08T08:19:16.559Z,12.71
2022-10-08T08:21:45.491Z,12.94
2022-10-08T08:24:16.517Z,13.16
2022-10-08T08:26:45.723Z,13.38
2022-10-08T08:29:16.626Z,13.30
2022-10-08T08:31:47.173Z,13.40
2022-10-08T08:34:22.692Z,13.36
2022-10-08T08:36:54.505Z,13.42
2022-10-08T08:39:25.346Z,13.47
2022-10-08T08:42:05.935Z,13.72
2022-10-08T08:44:38.849Z,13.82
2022-10-08T08:47:14.738Z,13.68
2022-10-08T08:49:48.309Z,13.79
2022-10-08T08:52:20.320Z,13.58
2022-10-08T08:54:50.066Z,13.96
2022-10-08T08:57:34.119Z,14.53
2022-10-08T09:00:07.034Z,13.93
2022-10-08T09:02:41.505Z,13.87
2022-10-08T09:05:16.795Z,14.83
2022-10-08T09:07:50.075Z,14.07
2022-10-08T09:10:23.531Z,13.95
2022-10-08T09:12:54.766Z,13.92
2022-10-08T09:15:30.694Z,14.68
2022-10-08T09:18:03.860Z,13.89
2022-10-08T09:20:39.997Z,14.05
2022-10-08T09:23:14.942Z,14.20
2022-10-08T09:25:48.326Z,13.79
2022-10-08T09:28:39.706Z,13.95
2022-10-08T09:31:25.804Z,14.91
2022-10-08T09:34:01.009Z,14.95
2022-10-08T09:36:45.111Z,16.31
2022-10-08T09:39:20.013Z,15.83
2022-10-08T09:42:09.824Z,15.97
2022-10-08T09:44:42.863Z,14.85
2022-10-08T09:47:14.757Z,15.61
2022-10-08T09:49:45.008Z,13.84
2022-10-08T09:52:20.557Z,13.98
2022-10-08T09:54:53.011Z,13.74
2022-10-08T09:57:23.204Z,13.46
2022-10-08T09:59:54.674Z,13.39
2022-10-08T10:02:30.809Z,13.32
2022-10-08T10:05:00.808Z,14.54
2022-10-08T10:07:42.495Z,13.88
2022-10-08T10:10:18.256Z,14.36
2022-10-08T10:12:52.191Z,15.23
2022-10-08T10:15:25.115Z,15.30
2022-10-08T10:17:56.611Z,16.02
2022-10-08T10:20:29.859Z,15.97
2022-10-08T10:23:06.373Z,15.75
2022-10-08T10:25:38.609Z,15.46
2022-10-08T10:28:12.724Z,15.28
2022-10-08T10:30:52.569Z,15.37
2022-10-08T10:33:26.631Z,14.60
2022-10-08T10:36:00.347Z,14.58
2022-10-08T10:38:32.341Z,15.47
2022-10-08T10:41:12.757Z,14.96
2022-10-08T10:43:48.117Z,14.61
2022-10-08T10:46:26.253Z,14.80
2022-10-08T10:48:55.702Z,16.52
2022-10-08T10:51:41.411Z,15.64
2022-10-08T10:54:32.275Z,14.78
2022-10-08T10:57:05.912Z,14.39
2022-10-08T10:59:47.281Z,14.59
2022-10-08T11:02:26.762Z,14.47
2022-10-08T11:05:04.176Z,14.34
2022-10-08T11:08:03.452Z,14.13
2022-10-08T11:10:52.733Z,14.21
2022-10-08T11:13:34.666Z,14.03
2022-10-08T11:16:15.696Z,14.63
2022-10-08T11:18:52.232Z,15.04
2022-10-08T11:21:40.029Z,14.16
2022-10-08T11:24:34.832Z,13.92
2022-10-08T11:27:15.672Z,13.92
2022-10-08T11:29:52.073Z,13.90
2022-10-08T11:32:21.662Z,13.52
2022-10-08T11:34:54.424Z,13.85
2022-10-08T11:37:27.889Z,13.20
2022-10-08T11:40:05.393Z,12.19
2022-10-08T11:42:48.078Z,11.84
2022-10-08T11:45:32.083Z,11.80
2022-10-08T11:48:05.333Z,11.93
2022-10-08T11:50:38.489Z,12.09
2022-10-08T11:53:18.772Z,12.27
2022-10-08T11:55:55.078Z,12.21
2022-10-08T11:58:29.235Z,12.44
2022-10-08T12:01:05.885Z,12.86
2022-10-08T12:03:37.211Z,12.87
2022-10-08T12:06:18.567Z,12.61
2022-10-08T12:08:53.581Z,13.43
2022-10-08T12:11:51.983Z,12.71
2022-10-08T12:14:48.601Z,13.91
2022-10-08T12:17:18.330Z,14.81
2022-10-08T12:20:21.872Z,14.74
2022-10-08T12:23:06.292Z,14.05
2022-10-08T12:25:44.209Z,14.62
2022-10-08T12:28:50.256Z,14.98
2022-10-08T12:31:27.757Z,14.98
2022-10-08T12:33:59.725Z,14.87
2022-10-08T12:36:37.653Z,15.36
2022-10-08T12:39:12.556Z,15.12
2022-10-08T12:41:49.106Z,14.93
2022-10-08T12:44:30.890Z,15.11
2022-10-08T12:47:10.381Z,15.42
2022-10-08T12:49:45.975Z,15.63
2022-10-08T12:52:16.524Z,15.87
2022-10-08T12:54:49.947Z,15.52
2022-10-08T12:57:23.705Z,15.42
2022-10-08T12:59:53.427Z,16.42
2022-10-08T13:02:38.114Z,16.43
2022-10-08T13:05:23.807Z,16.49
2022-10-08T13:07:54.410Z,16.43
2022-10-08T13:10:25.247Z,15.94
2022-10-08T13:13:01.298Z,15.94
2022-10-08T13:15:31.032Z,15.69
2022-10-08T13:18:01.981Z,15.87
2022-10-08T13:20:31.091Z,15.02
2022-10-08T13:23:05.064Z,14.69
2022-10-08T13:25:37.995Z,14.41
2022-10-08T13:28:12.491Z,14.42
2022-10-08T13:30:41.690Z,14.33
2022-10-08T13:33:17.893Z,14.18
2022-10-08T13:35:54.813Z,13.98
2022-10-08T13:38:26.258Z,13.81
2022-10-08T13:40:58.733Z,13.67
2022-10-08T13:43:28.128Z,14.12
2022-10-08T13:45:57.805Z,14.96
2022-10-08T13:48:28.075Z,15.39
2022-10-08T13:50:57.518Z,13.85
2022-10-08T13:53:27.942Z,13.49
2022-10-08T13:55:56.902Z,13.74
2022-10-08T13:58:25.808Z,14.27
2022-10-08T14:00:54.999Z,15.39
2022-10-08T14:03:24.127Z,15.37
2022-10-08T14:05:54.485Z,15.44
2022-10-08T14:08:27.135Z,14.87
2022-10-08T14:10:57.992Z,14.55
2022-10-08T14:13:29.253Z,15.03
2022-10-08T14:15:58.367Z,15.33
2022-10-08T14:18:27.359Z,15.29
2022-10-08T14:20:57.827Z,14.96
2022-10-08T14:23:26.759Z,14.93
2022-10-08T14:25:55.682Z,15.02
2022-10-08T14:28:24.995Z,14.95
2022-10-08T14:30:54.029Z,14.69
2022-10-08T14:33:22.985Z,14.33
2022-10-08T14:35:53.490Z,14.55
2022-10-08T14:38:24.584Z,14.97
2022-10-08T14:40:53.554Z,14.54
2022-10-08T14:43:25.653Z,14.43
2022-10-08T14:45:56.634Z,14.06
2022-10-08T14:48:25.650Z,14.84
2022-10-08T14:50:57.352Z,14.89
2022-10-08T14:53:27.773Z,14.12
2022-10-08T14:56:11.660Z,13.57
2022-10-08T14:58:41.322Z,12.83
2022-10-08T15:01:10.611Z,12.79
2022-10-08T15:03:39.619Z,12.61
2022-10-08T15:06:08.896Z,12.58
2022-10-08T15:08:40.312Z,12.61
2022-10-08T15:11:09.426Z,12.45
2022-10-08T15:13:38.394Z,12.51
2022-10-08T15:16:12.193Z,12.56
2022-10-08T15:18:41.201Z,12.38
2022-10-08T15:21:10.910Z,12.45
2022-10-08T15:23:41.210Z,12.26
2022-10-08T15:26:14.744Z,12.09
2022-10-08T15:28:45.940Z,12.05
2022-10-08T15:31:17.492Z,11.99
2022-10-08T15:33:48.126Z,11.86
2022-10-08T15:36:21.324Z,11.74
2022-10-08T15:38:59.338Z,11.73
2022-10-08T15:41:29.459Z,11.68
2022-10-08T15:44:07.256Z,11.56
2022-10-08T15:46:36.741Z,11.62
2022-10-08T15:49:06.830Z,11.64
2022-10-08T15:51:35.753Z,11.57
2022-10-08T15:54:06.307Z,11.57
2022-10-08T15:56:35.808Z,11.67
2022-10-08T15:59:05.934Z,11.76
2022-10-08T16:01:34.977Z,11.72
2022-10-08T16:04:04.010Z,11.59
2022-10-08T16:06:35.993Z,11.35
2022-10-08T16:09:06.792Z,11.26
2022-10-08T16:11:36.572Z,10.95
2022-10-08T16:14:08.462Z,10.84
2022-10-08T16:16:38.360Z,10.91
2022-10-08T16:19:09.091Z,10.78
2022-10-08T16:21:39.038Z,10.68
2022-10-08T16:24:09.906Z,10.61
2022-10-08T16:26:39.884Z,10.59
2022-10-08T16:29:10.837Z,10.63
2022-10-08T16:31:41.009Z,10.46
2022-10-08T16:34:14.106Z,10.44
2022-10-08T16:36:43.232Z,10.39
2022-10-08T16:39:17.746Z,10.31
2022-10-08T16:41:47.769Z,10.23
2022-10-08T16:44:18.880Z,10.25
2022-10-08T16:46:50.422Z,10.21
2022-10-08T16:49:24.631Z,10.15
2022-10-08T16:51:55.773Z,10.24
2022-10-08T16:54:26.249Z,10.28
2022-10-08T16:56:55.311Z,10.35
2022-10-08T16:59:25.874Z,10.24
2022-10-08T17:01:57.464Z,10.18
2022-10-08T17:04:28.677Z,10.25
2022-10-08T17:06:57.619Z,10.23
2022-10-08T17:09:27.926Z,10.22
2022-10-08T17:11:57.007Z,10.19
2022-10-08T17:14:25.935Z,10.10
2022-10-08T17:16:54.995Z,9.97
2022-10-08T17:19:23.955Z,9.89
2022-10-08T17:21:52.952Z,9.82
2022-10-08T17:24:22.081Z,9.71
2022-10-08T17:26:52.337Z,9.68
2022-10-08T17:29:21.298Z,9.70
2022-10-08T17:31:50.243Z,9.64
2022-10-08T17:34:19.245Z,9.53
2022-10-08T17:36:48.201Z,9.45
2022-10-08T17:39:21.000Z,9.51
2022-10-08T17:41:51.312Z,9.48
2022-10-08T17:44:20.587Z,9.54
2022-10-08T17:46:49.940Z,9.43
2022-10-08T17:49:20.498Z,9.53
2022-10-08T17:51:50.998Z,9.65
2022-10-08T17:54:21.163Z,9.62
2022-10-08T17:56:51.830Z,9.71
2022-10-08T17:59:22.825Z,9.74
2022-10-08T18:01:52.157Z,9.76
2022-10-08T18:04:21.412Z,9.86
2022-10-08T18:06:50.548Z,9.88
2022-10-08T18:09:21.367Z,9.77
2022-10-08T18:11:53.475Z,9.89
2022-10-08T18:14:24.222Z,9.81
2022-10-08T18:16:53.147Z,9.61
2022-10-08T18:19:22.109Z,9.52
2022-10-08T18:21:51.277Z,9.51
2022-10-08T18:24:20.624Z,9.48
2022-10-08T18:26:53.334Z,9.40
2022-10-08T18:29:22.512Z,9.29
2022-10-08T18:31:51.454Z,9.17
2022-10-08T18:34:20.757Z,9.09
2022-10-08T18:36:49.669Z,9.03
2022-10-08T18:39:24.811Z,9.06
2022-10-08T18:42:13.572Z,8.99
2022-10-08T18:44:43.167Z,9.00
2022-10-08T18:47:12.532Z,8.95
2022-10-08T18:49:41.710Z,8.95
2022-10-08T18:52:10.764Z,8.83
2022-10-08T18:54:39.732Z,8.81
2022-10-08T18:57:10.170Z,8.73
2022-10-08T18:59:39.789Z,8.71
2022-10-08T19:02:10.239Z,8.80
2022-10-08T19:04:39.455Z,8.82
2022-10-08T19:07:11.253Z,8.82
2022-10-08T19:09:40.667Z,8.94
2022-10-08T19:12:11.050Z,8.87
2022-10-08T19:14:39.980Z,8.96
2022-10-08T19:17:09.240Z,9.00
2022-10-08T19:19:38.484Z,9.03
2022-10-08T19:22:07.535Z,9.15
2022-10-08T19:24:40.862Z,9.21
2022-10-08T19:27:11.706Z,9.16
2022-10-08T19:29:40.876Z,9.09
2022-10-08T19:32:09.823Z,9.06
2022-10-08T19:34:38.983Z,9.10
2022-10-08T19:37:07.982Z,9.03
2022-10-08T19:39:41.711Z,9.05
2022-10-08T19:42:14.592Z,9.08
2022-10-08T19:44:46.237Z,9.09
2022-10-08T19:47:15.629Z,8.96
2022-10-08T19:49:48.719Z,8.91
2022-10-08T19:52:30.912Z,8.88
2022-10-08T19:54:59.957Z,8.77
2022-10-08T19:57:32.196Z,8.85
2022-10-08T20:00:01.717Z,8.81
2022-10-08T20:02:33.367Z,8.76
2022-10-08T20:05:02.951Z,8.76
2022-10-08T20:07:31.864Z,8.85
2022-10-08T20:10:01.677Z,8.78
2022-10-08T20:12:32.126Z,8.65
2022-10-08T20:15:01.173Z,8.60
2022-10-08T20:17:30.124Z,8.66
2022-10-08T20:20:15.229Z,8.55
2022-10-08T20:22:48.154Z,8.50
2022-10-08T20:25:20.244Z,8.59
2022-10-08T20:27:51.640Z,8.48
2022-10-08T20:30:21.553Z,8.49
2022-10-08T20:32:51.072Z,8.51
2022-10-08T20:35:20.731Z,8.43
2022-10-08T20:37:49.763Z,8.46
2022-10-08T20:40:18.899Z,8.36
2022-10-08T20:42:51.566Z,8.33
2022-10-08T20:45:20.569Z,8.44
2022-10-08T20:47:49.449Z,8.37
2022-10-08T20:50:18.455Z,8.37
2022-10-08T20:52:50.047Z,8.44
2022-10-08T20:55:19.582Z,8.35
2022-10-08T20:57:48.653Z,8.42
2022-10-08T21:00:20.033Z,8.41
2022-10-08T21:02:52.691Z,8.41
2022-10-08T21:05:21.792Z,8.34
2022-10-08T21:08:00.080Z,8.31
2022-10-08T21:10:37.680Z,8.29
2022-10-08T21:13:06.633Z,8.32
2022-10-08T21:15:36.884Z,8.30
2022-10-08T21:18:06.152Z,8.40
2022-10-08T21:20:39.672Z,8.30
2022-10-08T21:23:08.789Z,8.25
2022-10-08T21:25:37.721Z,8.27
2022-10-08T21:28:06.880Z,8.24
2022-10-08T21:30:37.367Z,8.17
2022-10-08T21:33:06.342Z,8.12
2022-10-08T21:35:37.818Z,8.10
2022-10-08T21:38:08.065Z,8.14
2022-10-08T21:40:37.513Z,8.10
2022-10-08T21:43:06.578Z,8.07
2022-10-08T21:45:36.894Z,8.04
2022-10-08T21:48:05.919Z,8.07
2022-10-08T21:50:36.230Z,8.06
2022-10-08T21:53:05.504Z,8.13
2022-10-08T21:55:34.571Z,8.16
2022-10-08T21:58:03.543Z,8.15
2022-10-08T22:00:34.720Z,8.04
2022-10-08T22:03:05.400Z,8.04
2022-10-08T22:05:34.377Z,8.12
2022-10-08T22:08:03.323Z,8.10
2022-10-08T22:10:32.262Z,8.00
2022-10-08T22:13:01.163Z,8.18
2022-10-08T22:15:30.185Z,8.18
2022-10-08T22:17:59.185Z,8.17
2022-10-08T22:20:29.883Z,7.99
2022-10-08T22:22:58.782Z,7.93
2022-10-08T22:25:27.698Z,7.86
2022-10-08T22:27:56.841Z,8.00
2022-10-08T22:30:26.114Z,7.98
2022-10-08T22:32:55.122Z,8.04
2022-10-08T22:35:24.034Z,7.97
2022-10-08T22:37:54.307Z,7.87
2022-10-08T22:40:23.225Z,7.79
2022-10-08T22:42:52.218Z,7.80
2022-10-08T22:45:21.216Z,7.73
2022-10-08T22:47:50.167Z,7.75
2022-10-08T22:50:19.772Z,7.66
2022-10-08T22:52:50.654Z,7.62
2022-10-08T22:55:21.621Z,7.56
2022-10-08T22:57:50.543Z,7.58
2022-10-08T23:00:19.547Z,7.58
2022-10-08T23:02:48.772Z,7.50
2022-10-08T23:05:18.169Z,7.45
2022-10-08T23:07:47.100Z,7.43
2022-10-08T23:10:16.326Z,7.48
2022-10-08T23:12:46.904Z,7.42
2022-10-08T23:15:16.238Z,7.40
2022-10-08T23:17:45.171Z,7.36
2022-10-08T23:20:14.083Z,7.36
2022-10-08T23:22:42.991Z,7.33
2022-10-08T23:25:11.953Z,7.28
2022-10-08T23:27:40.882Z,7.33
2022-10-08T23:30:31.377Z,7.26
2022-10-08T23:33:00.951Z,7.22
2022-10-08T23:35:29.860Z,7.19
2022-10-08T23:37:58.757Z,7.22
2022-10-08T23:40:27.735Z,7.21
2022-10-08T23:42:56.678Z,7.18
2022-10-08T23:45:26.957Z,7.15
2022-10-08T23:47:55.882Z,7.18
2022-10-08T23:50:24.820Z,7.21
2022-10-08T23:52:53.750Z,7.14
2022-10-08T23:55:22.681Z,7.15
2022-10-08T23:57:51.559Z,7.13
